Time;durP1;ratioP1;P1;durP2;ratioP2;P2;SDS_P1;SDS_P2;PMS_P1;PMS_P2;Temp;Humidity;BMP_temperature;BMP_pressure;BME280_temperature;BME280_humidity;BME280_pressure;Samples;Min_cycle;Max_cycle;Signal;HPM_P1;HPM_P2
2023/08/27 00:04:18;;;;;;;1.17;1.17;;;;;;;;;;10415111;28;20314;-78
2023/08/27 00:09:19;;;;;;;1.38;1.33;;;;;;;;;;10416873;28;20219;-80
2023/08/27 00:14:20;;;;;;;1.83;1.27;;;;;;;;;;10406124;28;20219;-78
2023/08/27 00:19:21;;;;;;;1.65;1.55;;;;;;;;;;10404271;28;20222;-79
2023/08/27 00:24:22;;;;;;;1.73;1.38;;;;;;;;;;10423539;28;20696;-74
2023/08/27 00:29:24;;;;;;;1.02;1.02;;;;;;;;;;10419786;28;20203;-76
2023/08/27 00:34:32;;;;;;;1.50;1.42;;;;;;;;;;10419932;28;20223;-78
2023/08/27 00:39:33;;;;;;;1.52;1.45;;;;;;;;;;10401451;28;20233;-76
2023/08/27 00:44:35;;;;;;;1.83;1.70;;;;;;;;;;10419310;28;20214;-77
2023/08/27 00:49:37;;;;;;;3.15;2.65;;;;;;;;;;10417254;28;20742;-76
2023/08/27 00:54:38;;;;;;;2.85;2.65;;;;;;;;;;10403543;28;20297;-75
2023/08/27 00:59:39;;;;;;;2.58;2.38;;;;;;;;;;10424139;28;20552;-75
2023/08/27 01:04:40;;;;;;;2.47;2.38;;;;;;;;;;10420184;28;20222;-76
2023/08/27 01:09:47;;;;;;;9.40;5.22;;;;;;;;;;10398689;28;20585;-75
2023/08/27 01:14:48;;;;;;;3.80;2.58;;;;;;;;;;10400090;28;20233;-76
2023/08/27 01:19:52;;;;;;;2.15;1.98;;;;;;;;;;10401842;28;20600;-76
2023/08/27 01:24:53;;;;;;;3.17;1.88;;;;;;;;;;10413817;28;20715;-77
2023/08/27 01:29:55;;;;;;;1.98;1.88;;;;;;;;;;10420653;28;20302;-75
2023/08/27 01:34:57;;;;;;;1.92;1.55;;;;;;;;;;10415408;28;20625;-75
2023/08/27 01:40:05;;;;;;;2.83;2.63;;;;;;;;;;10401573;28;20305;-76
2023/08/27 01:45:08;;;;;;;2.45;2.28;;;;;;;;;;10364356;28;20219;-76
2023/08/27 01:50:09;;;;;;;1.85;1.75;;;;;;;;;;10364722;28;20570;-76
2023/08/27 01:55:10;;;;;;;2.00;1.90;;;;;;;;;;10350018;28;20283;-76
2023/08/27 02:00:12;;;;;;;1.92;1.60;;;;;;;;;;10351456;28;20827;-76
2023/08/27 02:05:21;;;;;;;2.80;1.67;;;;;;;;;;10371041;28;20711;-77
2023/08/27 02:10:22;;;;;;;2.35;1.70;;;;;;;;;;10354242;28;20249;-78
2023/08/27 02:15:23;;;;;;;1.50;1.50;;;;;;;;;;10355059;28;20269;-76
2023/08/27 02:20:24;;;;;;;1.90;1.77;;;;;;;;;;10353639;28;20226;-76
2023/08/27 02:25:25;;;;;;;1.80;1.33;;;;;;;;;;10370463;28;20606;-74
2023/08/27 02:30:26;;;;;;;1.55;1.55;;;;;;;;;;10353794;28;20713;-75
2023/08/27 02:35:29;;;;;;;1.65;1.63;;;;;;;;;;10363183;28;20319;-74
2023/08/27 02:40:31;;;;;;;3.00;1.92;;;;;;;;;;10351883;28;20208;-76
2023/08/27 02:45:32;;;;;;;2.22;2.05;;;;;;;;;;10364050;28;20227;-76
2023/08/27 02:50:33;;;;;;;1.45;1.45;;;;;;;;;;10370113;28;20212;-76
2023/08/27 02:55:34;;;;;;;4.63;1.73;;;;;;;;;;10361770;28;20227;-76
2023/08/27 03:00:39;;;;;;;2.28;2.17;;;;;;;;;;10360752;28;20314;-75
2023/08/27 03:05:41;;;;;;;3.30;1.38;;;;;;;;;;10355764;28;20322;-73
2023/08/27 03:10:43;;;;;;;1.90;1.80;;;;;;;;;;10369052;28;20273;-74
2023/08/27 03:15:44;;;;;;;1.90;1.80;;;;;;;;;;10371348;28;20652;-77
2023/08/27 03:20:45;;;;;;;1.88;1.85;;;;;;;;;;10351982;28;20310;-77
2023/08/27 03:25:48;;;;;;;1.55;1.48;;;;;;;;;;10354311;28;20227;-74
2023/08/27 03:30:50;;;;;;;1.83;1.73;;;;;;;;;;10361572;28;20212;-74
2023/08/27 03:35:52;;;;;;;1.45;1.45;;;;;;;;;;10367126;28;20301;-74
2023/08/27 03:40:53;;;;;;;2.63;2.13;;;;;;;;;;10348512;28;20210;-77
2023/08/27 03:45:55;;;;;;;1.33;1.27;;;;;;;;;;10353164;28;20314;-75
2023/08/27 03:50:56;;;;;;;1.45;1.45;;;;;;;;;;10356249;28;20211;-77
2023/08/27 03:55:57;;;;;;;1.65;1.65;;;;;;;;;;10342225;28;20216;-76
2023/08/27 04:00:58;;;;;;;4.13;1.42;;;;;;;;;;10357573;28;20565;-75
2023/08/27 04:05:59;;;;;;;1.10;1.10;;;;;;;;;;10354883;28;20686;-75
2023/08/27 04:11:01;;;;;;;6.72;1.92;;;;;;;;;;10368411;28;20223;-75
2023/08/27 04:16:03;;;;;;;1.80;1.70;;;;;;;;;;10371778;28;20224;-77
2023/08/27 04:21:05;;;;;;;1.50;1.40;;;;;;;;;;10366767;28;20247;-77
2023/08/27 04:26:06;;;;;;;1.55;1.50;;;;;;;;;;10360494;28;20698;-77
2023/08/27 04:31:07;;;;;;;1.20;1.20;;;;;;;;;;10349898;28;20514;-76
2023/08/27 04:36:10;;;;;;;1.20;1.20;;;;;;;;;;10375023;28;20725;-76
2023/08/27 04:41:11;;;;;;;1.20;1.10;;;;;;;;;;10359929;28;20214;-76
2023/08/27 04:46:12;;;;;;;1.13;1.13;;;;;;;;;;10371072;28;20234;-76
2023/08/27 04:51:14;;;;;;;3.92;1.10;;;;;;;;;;10367258;28;20716;-77
2023/08/27 04:56:15;;;;;;;1.15;1.10;;;;;;;;;;10358438;28;20315;-75
2023/08/27 05:01:16;;;;;;;1.35;1.27;;;;;;;;;;10386286;28;20250;-73
2023/08/27 05:06:18;;;;;;;1.52;1.50;;;;;;;;;;10407722;28;20218;-75
2023/08/27 05:11:19;;;;;;;1.42;1.35;;;;;;;;;;10395434;28;20235;-75
2023/08/27 05:16:22;;;;;;;2.03;1.60;;;;;;;;;;10416914;28;20238;-77
2023/08/27 05:21:23;;;;;;;0.85;0.85;;;;;;;;;;10409098;28;20206;-76
2023/08/27 05:26:24;;;;;;;1.27;1.20;;;;;;;;;;10409115;28;20310;-73
2023/08/27 05:31:26;;;;;;;1.20;1.10;;;;;;;;;;10406767;28;20400;-76
2023/08/27 05:36:31;;;;;;;1.42;1.35;;;;;;;;;;10380660;28;20464;-76
2023/08/27 05:41:32;;;;;;;2.88;1.10;;;;;;;;;;10422036;28;20234;-75
2023/08/27 05:46:33;;;;;;;0.90;0.90;;;;;;;;;;10388738;28;20227;-75
2023/08/27 05:51:35;;;;;;;5.53;0.90;;;;;;;;;;10401696;28;20211;-77
2023/08/27 05:56:36;;;;;;;1.15;1.10;;;;;;;;;;10387228;28;20218;-77
2023/08/27 06:01:37;;;;;;;0.88;0.88;;;;;;;;;;10399301;28;20438;-73
2023/08/27 06:06:40;;;;;;;1.67;1.00;;;;;;;;;;10419105;28;20215;-73
2023/08/27 06:11:41;;;;;;;1.40;1.00;;;;;;;;;;10401955;28;20782;-73
2023/08/27 06:16:43;;;;;;;1.02;1.02;;;;;;;;;;10419942;28;20234;-71
2023/08/27 06:21:44;;;;;;;1.27;0.85;;;;;;;;;;10404622;28;20203;-72
2023/08/27 06:26:45;;;;;;;0.88;0.88;;;;;;;;;;10409655;28;20229;-70
2023/08/27 06:31:46;;;;;;;0.75;0.75;;;;;;;;;;10409493;28;20211;-71
2023/08/27 06:36:48;;;;;;;1.33;1.23;;;;;;;;;;10426524;28;20207;-71
2023/08/27 06:41:49;;;;;;;1.02;1.02;;;;;;;;;;10409212;28;20232;-72
2023/08/27 06:46:53;;;;;;;1.00;1.00;;;;;;;;;;10429439;28;20226;-71
2023/08/27 06:51:54;;;;;;;0.80;0.80;;;;;;;;;;10406742;28;20211;-70
2023/08/27 06:56:55;;;;;;;2.22;1.17;;;;;;;;;;10409605;28;20221;-72
2023/08/27 07:01:57;;;;;;;1.02;1.02;;;;;;;;;;10423512;28;20210;-70
2023/08/27 07:06:59;;;;;;;1.90;1.23;;;;;;;;;;10430464;28;20227;-70
2023/08/27 07:12:00;;;;;;;1.25;1.20;;;;;;;;;;10423262;28;20207;-70
2023/08/27 07:17:01;;;;;;;1.10;1.10;;;;;;;;;;10428139;28;20244;-70
2023/08/27 07:22:02;;;;;;;1.00;1.00;;;;;;;;;;10403952;28;20623;-71
2023/08/27 07:27:04;;;;;;;1.45;1.35;;;;;;;;;;10437536;28;20760;-73
2023/08/27 07:32:05;;;;;;;2.72;1.10;;;;;;;;;;10410941;28;20214;-71
2023/08/27 07:37:06;;;;;;;3.88;1.27;;;;;;;;;;10420903;28;20214;-75
2023/08/27 07:42:07;;;;;;;2.65;1.10;;;;;;;;;;10410978;28;20219;-69
2023/08/27 07:47:08;;;;;;;1.08;1.05;;;;;;;;;;10436835;28;20270;-72
2023/08/27 07:52:09;;;;;;;0.80;0.80;;;;;;;;;;10421627;28;20211;-70
2023/08/27 07:57:11;;;;;;;1.65;1.17;;;;;;;;;;10439883;28;20218;-71
2023/08/27 08:02:12;;;;;;;1.27;1.25;;;;;;;;;;10421286;28;20236;-71
2023/08/27 08:07:14;;;;;;;1.15;1.02;;;;;;;;;;10420908;28;20217;-71
2023/08/27 08:12:15;;;;;;;1.00;1.00;;;;;;;;;;10412612;28;20250;-73
2023/08/27 08:17:16;;;;;;;1.38;0.70;;;;;;;;;;10378645;28;1270520;-72
2023/08/27 08:22:18;;;;;;;1.05;1.05;;;;;;;;;;10420858;28;20689;-74
2023/08/27 08:27:19;;;;;;;1.10;1.08;;;;;;;;;;10396001;28;20222;-69
2023/08/27 08:32:20;;;;;;;0.70;0.70;;;;;;;;;;10424322;28;20215;-70
2023/08/27 08:37:21;;;;;;;0.80;0.80;;;;;;;;;;10418690;28;20735;-73
2023/08/27 08:42:30;;;;;;;1.45;1.00;;;;;;;;;;10426974;28;20218;-73
2023/08/27 08:47:31;;;;;;;1.80;0.60;;;;;;;;;;10423576;28;20697;-72
2023/08/27 08:52:36;;;;;;;1.35;0.70;;;;;;;;;;10420864;28;20273;-72
2023/08/27 08:57:39;;;;;;;1.00;1.00;;;;;;;;;;10421688;28;20287;-71
2023/08/27 09:02:41;;;;;;;1.95;0.65;;;;;;;;;;10421663;28;20441;-72
2023/08/27 09:07:43;;;;;;;0.80;0.50;;;;;;;;;;10423075;28;20348;-70
2023/08/27 09:12:46;;;;;;;0.88;0.88;;;;;;;;;;10405631;28;20242;-71
2023/08/27 09:17:47;;;;;;;0.80;0.80;;;;;;;;;;10418388;28;20314;-70
2023/08/27 09:22:49;;;;;;;0.57;0.57;;;;;;;;;;10385355;28;20203;-72
2023/08/27 09:27:50;;;;;;;1.73;0.77;;;;;;;;;;10414993;28;20270;-73
2023/08/27 09:32:51;;;;;;;0.70;0.70;;;;;;;;;;10421830;28;20225;-72
2023/08/27 09:37:52;;;;;;;1.90;0.68;;;;;;;;;;10422658;28;20214;-68
2023/08/27 09:43:04;;;;;;;0.70;0.70;;;;;;;;;;10418737;28;20210;-73
2023/08/27 09:48:05;;;;;;;1.27;0.85;;;;;;;;;;10410074;28;20776;-71
2023/08/27 09:53:07;;;;;;;0.63;0.63;;;;;;;;;;10423757;28;20297;-71
2023/08/27 09:58:10;;;;;;;5.53;0.98;;;;;;;;;;10418499;28;20215;-73
2023/08/27 10:03:12;;;;;;;1.27;0.90;;;;;;;;;;10420062;28;20219;-71
2023/08/27 10:08:14;;;;;;;0.73;0.73;;;;;;;;;;10409475;28;20285;-70
2023/08/27 10:13:15;;;;;;;0.82;0.82;;;;;;;;;;10400371;28;20241;-74
2023/08/27 10:18:17;;;;;;;0.80;0.80;;;;;;;;;;10416860;28;20225;-70
2023/08/27 10:23:20;;;;;;;0.82;0.82;;;;;;;;;;10419241;28;20247;-71
2023/08/27 10:28:21;;;;;;;0.80;0.80;;;;;;;;;;10422978;28;20219;-71
2023/08/27 10:33:22;;;;;;;1.48;1.20;;;;;;;;;;10415036;28;20215;-69
2023/08/27 10:38:27;;;;;;;1.67;1.10;;;;;;;;;;10425095;28;20238;-70
2023/08/27 10:43:32;;;;;;;0.70;0.70;;;;;;;;;;10408824;28;20210;-72
2023/08/27 10:48:36;;;;;;;0.75;0.75;;;;;;;;;;10415642;28;20215;-72
2023/08/27 10:53:53;;;;;;;1.35;1.25;;;;;;;;;;10417807;28;20281;-70
2023/08/27 10:58:58;;;;;;;0.57;0.57;;;;;;;;;;10417715;28;20270;-69
2023/08/27 11:04:00;;;;;;;1.55;0.80;;;;;;;;;;10424086;28;20623;-69
2023/08/27 11:09:04;;;;;;;0.73;0.38;;;;;;;;;;10411295;28;20219;-70
2023/08/27 11:14:06;;;;;;;0.45;0.45;;;;;;;;;;10423542;28;20645;-70
2023/08/27 11:19:10;;;;;;;1.65;0.40;;;;;;;;;;10426396;28;20218;-70
2023/08/27 11:24:11;;;;;;;1.20;0.40;;;;;;;;;;10429609;28;20276;-69
2023/08/27 11:29:12;;;;;;;0.40;0.40;;;;;;;;;;10426242;28;20294;-71
2023/08/27 11:34:14;;;;;;;0.40;0.40;;;;;;;;;;10420164;28;20225;-69
2023/08/27 11:39:16;;;;;;;0.32;0.32;;;;;;;;;;10425091;28;20216;-70
2023/08/27 11:44:17;;;;;;;1.58;0.40;;;;;;;;;;10415939;28;20441;-73
2023/08/27 11:49:28;;;;;;;0.32;0.32;;;;;;;;;;10410592;28;20306;-70
2023/08/27 11:54:30;;;;;;;0.20;0.20;;;;;;;;;;10421254;28;20211;-69
2023/08/27 11:59:32;;;;;;;0.40;0.40;;;;;;;;;;10422805;28;20272;-72
2023/08/27 12:04:34;;;;;;;0.60;0.60;;;;;;;;;;10415652;28;20783;-73
2023/08/27 12:09:35;;;;;;;1.75;0.32;;;;;;;;;;10424443;28;20350;-72
2023/08/27 12:14:40;;;;;;;0.65;0.30;;;;;;;;;;10422928;28;20461;-72
2023/08/27 12:19:42;;;;;;;0.50;0.50;;;;;;;;;;10437506;28;20226;-73
2023/08/27 12:24:44;;;;;;;0.40;0.40;;;;;;;;;;10421790;28;20242;-71
2023/08/27 12:29:46;;;;;;;0.65;0.30;;;;;;;;;;10427121;28;20435;-71
2023/08/27 12:34:51;;;;;;;0.40;0.40;;;;;;;;;;10423852;28;20238;-70
2023/08/27 12:39:52;;;;;;;1.00;0.28;;;;;;;;;;10428236;28;20302;-69
2023/08/27 12:44:53;;;;;;;1.50;0.50;;;;;;;;;;10403994;28;20246;-69
2023/08/27 12:49:54;;;;;;;0.38;0.38;;;;;;;;;;10420955;28;20222;-69
2023/08/27 12:54:55;;;;;;;0.30;0.30;;;;;;;;;;10404288;28;20269;-70
2023/08/27 12:59:57;;;;;;;0.70;0.70;;;;;;;;;;10406948;28;20235;-73
2023/08/27 13:04:58;;;;;;;0.50;0.50;;;;;;;;;;10422855;28;20231;-71
2023/08/27 13:09:59;;;;;;;0.32;0.32;;;;;;;;;;10423215;28;20605;-73
2023/08/27 13:15:00;;;;;;;0.50;0.50;;;;;;;;;;10419952;28;20839;-71
2023/08/27 13:20:01;;;;;;;0.40;0.40;;;;;;;;;;10423713;28;20217;-71
2023/08/27 13:25:04;;;;;;;0.82;0.63;;;;;;;;;;10423139;28;20720;-71
2023/08/27 13:30:05;;;;;;;0.30;0.30;;;;;;;;;;10415107;28;20206;-74
2023/08/27 13:35:06;;;;;;;0.98;0.40;;;;;;;;;;10365119;28;20247;-70
2023/08/27 13:40:08;;;;;;;1.48;0.45;;;;;;;;;;10404669;28;20752;-70
2023/08/27 13:45:09;;;;;;;0.40;0.40;;;;;;;;;;10419359;28;20219;-70
2023/08/27 13:50:10;;;;;;;0.47;0.47;;;;;;;;;;10400564;28;21251;-73
2023/08/27 13:55:12;;;;;;;0.30;0.30;;;;;;;;;;10401068;28;20703;-70
2023/08/27 14:00:13;;;;;;;0.47;0.40;;;;;;;;;;10401601;28;20287;-71
2023/08/27 14:05:16;;;;;;;1.38;0.43;;;;;;;;;;10401983;28;20212;-73
2023/08/27 14:10:18;;;;;;;0.40;0.40;;;;;;;;;;10418912;28;20331;-69
2023/08/27 14:15:20;;;;;;;0.32;0.32;;;;;;;;;;10404864;28;20216;-70
2023/08/27 14:20:22;;;;;;;0.57;0.57;;;;;;;;;;10379768;28;20183;-70
2023/08/27 14:25:24;;;;;;;0.52;0.52;;;;;;;;;;10365392;28;20252;-69
2023/08/27 14:30:25;;;;;;;0.52;0.52;;;;;;;;;;10363248;28;20595;-70
2023/08/27 14:35:26;;;;;;;0.73;0.40;;;;;;;;;;10345985;28;20749;-71
2023/08/27 14:40:27;;;;;;;0.50;0.50;;;;;;;;;;10359397;28;20325;-70
2023/08/27 14:45:28;;;;;;;0.50;0.50;;;;;;;;;;10349187;28;20234;-69
2023/08/27 14:50:29;;;;;;;3.30;0.65;;;;;;;;;;10363936;28;20315;-70
2023/08/27 14:55:30;;;;;;;0.55;0.55;;;;;;;;;;10352429;28;20767;-70
2023/08/27 15:00:31;;;;;;;0.60;0.60;;;;;;;;;;10385121;28;20246;-71
2023/08/27 15:05:32;;;;;;;0.40;0.40;;;;;;;;;;10350178;28;20430;-70
2023/08/27 15:10:34;;;;;;;1.63;0.50;;;;;;;;;;10365803;28;20236;-70
2023/08/27 15:15:35;;;;;;;2.60;0.52;;;;;;;;;;10367159;28;20251;-73
2023/08/27 15:20:36;;;;;;;0.60;0.60;;;;;;;;;;10352517;28;20215;-71
2023/08/27 15:25:37;;;;;;;0.68;0.68;;;;;;;;;;10347553;28;20569;-72
2023/08/27 15:30:38;;;;;;;0.50;0.50;;;;;;;;;;10363849;28;20222;-70
2023/08/27 15:35:39;;;;;;;0.50;0.50;;;;;;;;;;10348958;28;20223;-72
2023/08/27 15:40:44;;;;;;;0.50;0.50;;;;;;;;;;10365982;28;20218;-70
2023/08/27 15:45:45;;;;;;;0.47;0.47;;;;;;;;;;10348726;28;20318;-70
2023/08/27 15:50:46;;;;;;;0.40;0.40;;;;;;;;;;10359834;28;20987;-70
2023/08/27 15:55:48;;;;;;;1.08;0.50;;;;;;;;;;10359407;28;20721;-72
2023/08/27 16:00:49;;;;;;;0.43;0.43;;;;;;;;;;10333440;28;20208;-71
2023/08/27 16:05:50;;;;;;;0.40;0.40;;;;;;;;;;10333676;28;20526;-75
2023/08/27 16:10:52;;;;;;;0.40;0.40;;;;;;;;;;10328121;28;20659;-71
2023/08/27 16:15:53;;;;;;;0.57;0.47;;;;;;;;;;10346825;28;20322;-71
2023/08/27 16:20:54;;;;;;;0.90;0.50;;;;;;;;;;10361559;28;20870;-71
2023/08/27 16:25:56;;;;;;;0.38;0.38;;;;;;;;;;10377361;28;20308;-73
2023/08/27 16:30:57;;;;;;;0.60;0.60;;;;;;;;;;10361928;28;20310;-71
2023/08/27 16:35:58;;;;;;;1.20;1.20;;;;;;;;;;10361870;28;20224;-72
2023/08/27 16:40:59;;;;;;;2.42;0.50;;;;;;;;;;10360383;28;20218;-72
2023/08/27 16:46:00;;;;;;;0.63;0.63;;;;;;;;;;10359834;28;20227;-71
2023/08/27 16:51:06;;;;;;;0.90;0.50;;;;;;;;;;10395608;28;20215;-72
2023/08/27 16:56:07;;;;;;;0.85;0.60;;;;;;;;;;10367619;28;20227;-72
2023/08/27 17:01:08;;;;;;;0.40;0.40;;;;;;;;;;10358094;28;20590;-71
2023/08/27 17:06:09;;;;;;;0.32;0.32;;;;;;;;;;10379172;28;20228;-73
2023/08/27 17:11:10;;;;;;;0.40;0.40;;;;;;;;;;10372447;28;20325;-72
2023/08/27 17:16:11;;;;;;;1.05;0.45;;;;;;;;;;10371855;28;20231;-73
2023/08/27 17:21:12;;;;;;;0.60;0.60;;;;;;;;;;10360852;28;20709;-73
2023/08/27 17:26:13;;;;;;;0.50;0.50;;;;;;;;;;10375668;28;20923;-72
2023/08/27 17:31:15;;;;;;;0.50;0.50;;;;;;;;;;10356088;28;20212;-71
2023/08/27 17:36:16;;;;;;;0.60;0.60;;;;;;;;;;10375352;28;20311;-70
2023/08/27 17:41:17;;;;;;;0.45;0.45;;;;;;;;;;10377524;28;20219;-71
2023/08/27 17:46:18;;;;;;;0.40;0.40;;;;;;;;;;10380397;28;20226;-71
2023/08/27 17:51:19;;;;;;;0.82;0.70;;;;;;;;;;10380078;28;20343;-70
2023/08/27 17:56:20;;;;;;;0.60;0.60;;;;;;;;;;10379577;28;20571;-72
2023/08/27 18:01:21;;;;;;;0.80;0.80;;;;;;;;;;10380025;28;20207;-72
2023/08/27 18:06:23;;;;;;;0.75;0.47;;;;;;;;;;10362601;28;20936;-71
2023/08/27 18:11:24;;;;;;;0.40;0.40;;;;;;;;;;10385945;28;20302;-71
2023/08/27 18:16:25;;;;;;;0.50;0.50;;;;;;;;;;10363124;28;20219;-72
2023/08/27 18:21:26;;;;;;;1.73;0.60;;;;;;;;;;10390803;28;20245;-72
2023/08/27 18:26:27;;;;;;;0.75;0.50;;;;;;;;;;10386557;28;20219;-72
2023/08/27 18:31:29;;;;;;;0.47;0.40;;;;;;;;;;10387832;28;20812;-72
2023/08/27 18:36:30;;;;;;;0.50;0.50;;;;;;;;;;10371366;28;20697;-72
2023/08/27 18:41:31;;;;;;;0.75;0.70;;;;;;;;;;10397969;28;20207;-70
2023/08/27 18:46:33;;;;;;;0.50;0.50;;;;;;;;;;10388357;28;20720;-71
2023/08/27 18:51:35;;;;;;;1.27;0.82;;;;;;;;;;10385189;28;20208;-69
2023/08/27 18:56:36;;;;;;;0.50;0.50;;;;;;;;;;10374916;28;20212;-73
2023/08/27 19:01:37;;;;;;;0.70;0.70;;;;;;;;;;10387733;28;20764;-73
2023/08/27 19:06:39;;;;;;;1.38;0.77;;;;;;;;;;10385452;28;20623;-74
2023/08/27 19:11:40;;;;;;;0.75;0.75;;;;;;;;;;10392723;28;20215;-72
2023/08/27 19:16:43;;;;;;;0.73;0.73;;;;;;;;;;10384088;28;20419;-72
2023/08/27 19:21:44;;;;;;;0.90;0.90;;;;;;;;;;10381913;28;20667;-70
2023/08/27 19:26:45;;;;;;;2.83;0.80;;;;;;;;;;10377393;28;20219;-72
2023/08/27 19:31:47;;;;;;;0.73;0.73;;;;;;;;;;10385149;28;20224;-71
2023/08/27 19:36:48;;;;;;;0.60;0.60;;;;;;;;;;10376581;28;20273;-72
2023/08/27 19:41:49;;;;;;;0.75;0.75;;;;;;;;;;10385058;28;20212;-74
2023/08/27 19:46:52;;;;;;;0.95;0.77;;;;;;;;;;10385055;28;20307;-69
2023/08/27 19:51:53;;;;;;;0.52;0.30;;;;;;;;;;10383831;28;20688;-70
2023/08/27 19:56:54;;;;;;;0.20;0.20;;;;;;;;;;10368338;28;20314;-73
2023/08/27 20:01:55;;;;;;;0.50;0.20;;;;;;;;;;10383401;28;20204;-68
2023/08/27 20:06:56;;;;;;;0.30;0.30;;;;;;;;;;10390517;28;20385;-70
2023/08/27 20:11:57;;;;;;;0.20;0.20;;;;;;;;;;10387888;28;20219;-71
2023/08/27 20:16:58;;;;;;;0.30;0.30;;;;;;;;;;10384362;28;20243;-71
2023/08/27 20:21:59;;;;;;;0.30;0.30;;;;;;;;;;10387813;28;20207;-75
2023/08/27 20:27:01;;;;;;;0.90;0.40;;;;;;;;;;10383905;28;20219;-72
2023/08/27 20:32:02;;;;;;;0.30;0.30;;;;;;;;;;10382413;28;20262;-74
2023/08/27 20:37:03;;;;;;;0.30;0.30;;;;;;;;;;10381875;28;20247;-72
2023/08/27 20:42:04;;;;;;;0.30;0.30;;;;;;;;;;10381797;28;20747;-71
2023/08/27 20:47:05;;;;;;;0.40;0.40;;;;;;;;;;10386539;28;20858;-76
2023/08/27 20:52:06;;;;;;;0.40;0.40;;;;;;;;;;10379262;28;20212;-71
2023/08/27 20:57:07;;;;;;;0.75;0.40;;;;;;;;;;10382449;28;20227;-70
2023/08/27 21:02:08;;;;;;;0.32;0.32;;;;;;;;;;10381010;28;20211;-69
2023/08/27 21:07:09;;;;;;;0.40;0.40;;;;;;;;;;10380680;28;20612;-72
2023/08/27 21:12:11;;;;;;;0.50;0.50;;;;;;;;;;10380465;28;20238;-73
2023/08/27 21:17:12;;;;;;;0.40;0.40;;;;;;;;;;10411188;28;20322;-75
2023/08/27 21:22:14;;;;;;;0.73;0.60;;;;;;;;;;10418238;28;20226;-72
2023/08/27 21:27:15;;;;;;;0.20;0.20;;;;;;;;;;10389456;28;20254;-74
2023/08/27 21:32:16;;;;;;;0.40;0.40;;;;;;;;;;10404970;28;20211;-70
2023/08/27 21:37:17;;;;;;;0.65;0.50;;;;;;;;;;10415367;28;20215;-70
2023/08/27 21:42:18;;;;;;;0.50;0.50;;;;;;;;;;10400870;28;20214;-72
2023/08/27 21:47:19;;;;;;;0.40;0.40;;;;;;;;;;10420822;28;20219;-71
2023/08/27 21:52:20;;;;;;;1.67;0.30;;;;;;;;;;10403875;28;20222;-69
2023/08/27 21:57:21;;;;;;;0.40;0.40;;;;;;;;;;10402669;28;20226;-72
2023/08/27 22:02:23;;;;;;;0.40;0.40;;;;;;;;;;10393704;28;20214;-70
2023/08/27 22:07:24;;;;;;;1.00;0.40;;;;;;;;;;10390283;28;20223;-73
2023/08/27 22:12:26;;;;;;;0.50;0.50;;;;;;;;;;10414941;28;20290;-73
2023/08/27 22:17:27;;;;;;;0.40;0.40;;;;;;;;;;10420429;28;20625;-71
2023/08/27 22:22:28;;;;;;;0.63;0.43;;;;;;;;;;10403302;28;20252;-72
2023/08/27 22:27:29;;;;;;;0.20;0.20;;;;;;;;;;10401181;28;20219;-72
2023/08/27 22:32:31;;;;;;;0.30;0.30;;;;;;;;;;10411270;28;20218;-69
2023/08/27 22:37:32;;;;;;;0.22;0.22;;;;;;;;;;10417671;28;20210;-71
2023/08/27 22:42:34;;;;;;;0.40;0.30;;;;;;;;;;10420495;28;20956;-74
2023/08/27 22:47:35;;;;;;;0.30;0.30;;;;;;;;;;10386096;28;20215;-71
2023/08/27 22:52:36;;;;;;;0.20;0.20;;;;;;;;;;10420083;28;20769;-71
2023/08/27 22:57:37;;;;;;;0.20;0.20;;;;;;;;;;10402036;28;20788;-71
2023/08/27 23:02:38;;;;;;;0.30;0.30;;;;;;;;;;10400469;28;20203;-71
2023/08/27 23:07:39;;;;;;;0.30;0.30;;;;;;;;;;10426161;28;20640;-69
2023/08/27 23:12:40;;;;;;;0.30;0.30;;;;;;;;;;10424397;28;20222;-73
2023/08/27 23:17:41;;;;;;;0.40;0.40;;;;;;;;;;10369645;28;20337;-73
2023/08/27 23:22:42;;;;;;;0.90;0.25;;;;;;;;;;10384967;28;20466;-71
2023/08/27 23:27:43;;;;;;;0.30;0.30;;;;;;;;;;10381083;28;20693;-69
2023/08/27 23:32:44;;;;;;;0.20;0.20;;;;;;;;;;10371640;28;20484;-72
2023/08/27 23:37:45;;;;;;;0.40;0.30;;;;;;;;;;10383442;28;20705;-69
2023/08/27 23:42:46;;;;;;;0.35;0.35;;;;;;;;;;10385671;28;20219;-73
2023/08/27 23:47:48;;;;;;;0.30;0.30;;;;;;;;;;10387120;28;20217;-71
2023/08/27 23:52:49;;;;;;;0.20;0.20;;;;;;;;;;10366880;28;20211;-72
2023/08/27 23:57:50;;;;;;;0.40;0.40;;;;;;;;;;10384118;28;20211;-72
